Time;durP1;ratioP1;P1;durP2;ratioP2;P2;SDS_P1;SDS_P2;PMS_P1;PMS_P2;Temp;Humidity;BMP_temperature;BMP_pressure;BME280_temperature;BME280_humidity;BME280_pressure;Samples;Min_cycle;Max_cycle;Signal;HPM_P1;HPM_P2
2022/09/01 08:10:31;;;;;;;;;;;;;;;29.06;37.34;100438.16;5053627;28;1115;-30
2022/09/01 08:12:56;;;;;;;;;;;;;;;29.25;37.53;100432.16;5050229;28;1077;-30
2022/09/01 08:15:21;;;;;;;;;;;;;;;29.40;37.45;100430.09;5049148;28;1001;-34
2022/09/01 08:17:47;;;;;;;;;;;;;;;29.07;37.39;100434.41;5050351;28;1629;-30
2022/09/01 08:20:12;;;;;;;;;;;;;;;28.85;37.44;100431.81;5056043;28;1968;-32
2022/09/01 08:22:38;;;;;;;;;;;;;;;28.83;37.08;100431.19;5055391;28;802;-31
2022/09/01 08:25:04;;;;;;;;;;;;;;;28.76;37.28;100426.78;5056103;28;881;-31
2022/09/01 08:27:30;;;;;;;;;;;;;;;28.88;37.06;100422.44;5056226;28;838;-31
2022/09/01 08:29:56;;;;;;;;;;;;;;;28.81;36.83;100424.31;5055611;28;905;-34
2022/09/01 08:32:21;;;;;;;;;;;;;;;28.93;37.03;100436.22;5055658;28;857;-30
2022/09/01 08:34:47;;;;;;;;;;;;;;;28.94;36.88;100418.94;5056266;28;736;-30
2022/09/01 08:37:12;;;;;;;;;;;;;;;29.02;36.80;100420.66;5049235;28;918;-30
2022/09/01 08:39:37;;;;;;;;;;;;;;;29.22;36.74;100414.44;5055514;28;1898;-31
2022/09/01 08:42:06;;;;;;;;;;;;;;;28.93;37.10;100411.84;5055930;28;853;-30
2022/09/01 08:44:31;;;;;;;;;;;;;;;28.62;36.87;100410.50;5037995;28;761;-31
2022/09/01 08:46:58;;;;;;;;;;;;;;;28.48;36.93;100409.56;5055780;28;897;-30
2022/09/01 08:49:24;;;;;;;;;;;;;;;28.44;37.13;100403.75;5037971;28;1025;-29
2022/09/01 08:51:50;;;;;;;;;;;;;;;28.41;36.88;100398.72;5037917;28;879;-30
2022/09/01 08:54:15;;;;;;;;;;;;;;;28.46;36.85;100390.03;5054837;28;897;-32
2022/09/01 08:56:42;;;;;;;;;;;;;;;28.52;36.93;100393.78;5057728;28;946;-31
2022/09/01 08:59:08;;;;;;;;;;;;;;;28.81;37.14;100394.53;5059643;28;1964;-33
2022/09/01 09:01:37;;;;;;;;;;;;;;;29.11;37.16;100391.53;5041563;28;761;-32
2022/09/01 09:04:21;;;;;;;;;;;;;;;29.20;36.92;100386.72;5059334;28;841;-32
2022/09/01 09:06:50;;;;;;;;;;;;;;;29.21;37.62;100394.63;5059638;28;861;-33
2022/09/01 09:09:15;;;;;;;;;;;;;;;29.32;37.34;100395.91;5041130;28;1226;-33
2022/09/01 09:11:45;;;;;;;;;;;;;;;29.37;37.37;100389.03;5058093;28;1589;-30
2022/09/01 09:14:29;;;;;;;;;;;;;;;29.35;37.49;100386.53;5041418;28;1025;-34
2022/09/01 09:16:55;;;;;;;;;;;;;;;29.41;37.57;100387.59;5054357;28;810;-30
2022/09/01 09:19:39;;;;;;;;;;;;;;;29.36;37.92;100385.50;5059529;28;1961;-31
2022/09/01 09:22:06;;;;;;;;;;;;;;;29.46;37.62;100387.81;5059172;28;1469;-32
2022/09/01 09:24:51;;;;;;;;;;;;;;;29.36;37.75;100395.50;5059309;28;795;-34
2022/09/01 09:27:18;;;;;;;;;;;;;;;29.42;38.24;100387.38;5058607;28;1146;-31
2022/09/01 09:29:44;;;;;;;;;;;;;;;29.40;38.11;100385.91;5059155;28;790;-33
2022/09/01 09:32:09;;;;;;;;;;;;;;;29.35;37.98;100383.81;5059162;28;813;-33
2022/09/01 09:34:36;;;;;;;;;;;;;;;29.36;37.27;100379.25;5058893;28;757;-32
2022/09/01 09:37:18;;;;;;;;;;;;;;;29.42;37.28;100384.66;5058982;28;802;-33
2022/09/01 09:39:44;;;;;;;;;;;;;;;29.48;37.29;100382.19;5052254;28;1890;-34
2022/09/01 09:42:10;;;;;;;;;;;;;;;29.05;34.05;100371.50;5041255;28;773;-32
2022/09/01 09:44:47;;;;;;;;;;;;;;;28.55;31.99;100377.97;5058289;28;895;-33
2022/09/01 09:47:48;;;;;;;;;;;;;;;29.17;33.71;100381.72;5036017;28;739;-32
2022/09/01 09:50:16;;;;;;;;;;;;;;;29.61;34.27;100375.94;4958697;29;1256;-36
2022/09/01 09:52:45;;;;;;;;;;;;;;;29.93;33.29;100376.09;5039585;28;917;-34
2022/09/01 09:55:27;;;;;;;;;;;;;;;30.08;33.05;100372.34;5040564;28;811;-32
2022/09/01 09:57:57;;;;;;;;;;;;;;;30.19;32.82;100375.22;5052894;28;849;-35
2022/09/01 10:00:22;;;;;;;;;;;;;;;30.04;33.87;100367.34;5040395;28;1957;-34
2022/09/01 10:02:52;;;;;;;;;;;;;;;30.02;35.11;100371.28;5058669;28;791;-31
2022/09/01 10:05:17;;;;;;;;;;;;;;;29.98;35.68;100362.75;5058209;28;814;-33
2022/09/01 10:07:42;;;;;;;;;;;;;;;29.99;35.66;100367.13;5057463;28;851;-30
2022/09/01 10:10:27;;;;;;;;;;;;;;;30.07;35.93;100363.34;5040920;28;869;-34
2022/09/01 10:12:52;;;;;;;;;;;;;;;29.86;36.03;100362.59;5058250;28;1045;-30
2022/09/01 10:15:18;;;;;;;;;;;;;;;29.95;36.15;100357.75;5057930;28;853;-32
2022/09/01 10:17:43;;;;;;;;;;;;;;;29.99;36.61;100366.28;5041060;28;829;-31
2022/09/01 10:20:13;;;;;;;;;;;;;;;29.93;36.01;100362.53;5057920;28;1967;-34
2022/09/01 10:22:38;;;;;;;;;;;;;;;29.93;36.65;100365.25;5040298;28;837;-34
2022/09/01 10:25:05;;;;;;;;;;;;;;;29.90;36.01;100365.69;5058183;28;771;-32
2022/09/01 10:27:31;;;;;;;;;;;;;;;29.96;36.44;100364.00;5058036;28;826;-31
2022/09/01 10:30:07;;;;;;;;;;;;;;;30.15;36.30;100360.41;5039965;28;807;-32
2022/09/01 10:32:59;;;;;;;;;;;;;;;30.11;36.37;100355.63;5057776;28;1070;-33
2022/09/01 10:35:24;;;;;;;;;;;;;;;30.00;35.83;100357.09;5053622;28;1688;-31
2022/09/01 10:37:49;;;;;;;;;;;;;;;30.01;36.07;100364.22;5057648;28;770;-36
2022/09/01 10:40:37;;;;;;;;;;;;;;;29.95;36.26;100360.47;5058040;28;1902;-33
2022/09/01 10:43:32;;;;;;;;;;;;;;;29.24;36.07;100243.59;5051734;28;822;-33
2022/09/01 10:45:57;;;;;;;;;;;;;;;29.84;36.41;100361.94;5035922;28;1619;-34
2022/09/01 10:48:27;;;;;;;;;;;;;;;29.93;36.17;100355.25;5057420;28;958;-34
2022/09/01 10:50:54;;;;;;;;;;;;;;;30.00;36.25;100344.38;5039542;28;792;-32
2022/09/01 10:53:34;;;;;;;;;;;;;;;30.06;37.10;100354.38;5038755;28;1342;-35
2022/09/01 10:56:18;;;;;;;;;;;;;;;30.17;37.02;100352.06;5056270;28;1500;-35
2022/09/01 10:58:55;;;;;;;;;;;;;;;30.47;36.12;100350.72;5056941;28;814;-33
2022/09/01 11:01:39;;;;;;;;;;;;;;;30.55;35.46;100348.59;5057028;28;1572;-32
2022/09/01 11:04:05;;;;;;;;;;;;;;;30.60;35.51;100341.66;5056479;28;1307;-29
2022/09/01 11:06:31;;;;;;;;;;;;;;;30.68;35.49;100341.41;5038943;28;1447;-35
2022/09/01 11:08:57;;;;;;;;;;;;;;;30.67;35.52;100346.03;5056945;28;785;-35
2022/09/01 11:11:30;;;;;;;;;;;;;;;30.65;35.77;100325.56;5038991;28;1352;-32
2022/09/01 11:13:57;;;;;;;;;;;;;;;30.55;35.82;100336.91;5039170;28;1027;-30
2022/09/01 11:16:33;;;;;;;;;;;;;;;30.62;35.79;100332.28;5057487;28;827;-30
2022/09/01 11:19:17;;;;;;;;;;;;;;;30.64;35.72;100343.75;5039198;28;1961;-33
2022/09/01 11:21:42;;;;;;;;;;;;;;;30.63;35.72;100344.78;5056338;28;830;-32
2022/09/01 11:24:26;;;;;;;;;;;;;;;30.58;35.51;100341.88;5039300;28;1209;-30
2022/09/01 11:29:55;;;;;;;;;;;;;;;30.55;35.98;100345.03;5051384;28;688;-34
2022/09/01 11:32:21;;;;;;;;;;;;;;;30.60;35.80;100349.81;5039063;28;857;-35
2022/09/01 11:34:47;;;;;;;;;;;;;;;30.66;35.53;100343.53;5039274;28;849;-31
2022/09/01 11:37:13;;;;;;;;;;;;;;;30.62;35.68;100343.13;5033821;28;1502;-30
2022/09/01 11:39:45;;;;;;;;;;;;;;;30.58;35.83;100349.22;5050059;28;1898;-33
2022/09/01 11:42:18;;;;;;;;;;;;;;;30.56;35.71;100344.00;5033405;28;827;-34
2022/09/01 11:44:44;;;;;;;;;;;;;;;30.63;35.68;100347.50;5038861;28;814;-32
2022/09/01 11:47:10;;;;;;;;;;;;;;;30.59;35.82;100346.28;5056631;28;817;-32
2022/09/01 11:49:36;;;;;;;;;;;;;;;30.62;35.42;100343.13;5038663;28;985;-35
2022/09/01 11:52:01;;;;;;;;;;;;;;;30.56;35.87;100346.72;5056674;28;901;-31
2022/09/01 11:54:27;;;;;;;;;;;;;;;30.53;36.30;100347.97;5056822;28;836;-30
2022/09/01 11:56:52;;;;;;;;;;;;;;;30.56;36.09;100349.44;5038566;28;850;-35
2022/09/01 11:59:34;;;;;;;;;;;;;;;30.53;36.10;100353.41;5038344;28;1964;-33
2022/09/01 12:02:00;;;;;;;;;;;;;;;30.55;35.81;100347.75;5050663;28;806;-32
2022/09/01 12:04:29;;;;;;;;;;;;;;;30.52;35.76;100337.34;5056639;28;866;-31
2022/09/01 12:06:56;;;;;;;;;;;;;;;30.47;35.92;100332.56;5056640;28;909;-34
2022/09/01 12:09:22;;;;;;;;;;;;;;;30.50;36.06;100328.56;5056141;28;763;-34
2022/09/01 12:11:47;;;;;;;;;;;;;;;30.51;36.00;100339.22;5038687;28;1457;-30
2022/09/01 12:14:18;;;;;;;;;;;;;;;30.48;36.27;100338.84;5055949;28;1266;-33
2022/09/01 12:16:43;;;;;;;;;;;;;;;30.50;36.30;100337.56;5050313;28;743;-33
2022/09/01 12:19:20;;;;;;;;;;;;;;;30.51;36.00;100339.22;5048799;28;1897;-30
2022/09/01 12:21:54;;;;;;;;;;;;;;;30.43;36.45;100345.72;5037879;28;1272;-31
2022/09/01 12:24:20;;;;;;;;;;;;;;;30.48;35.83;100344.25;5056437;28;727;-35
2022/09/01 12:26:46;;;;;;;;;;;;;;;30.45;36.19;100342.78;5056454;28;938;-34
2022/09/01 12:29:12;;;;;;;;;;;;;;;30.43;35.96;100334.88;5038353;28;826;-33
2022/09/01 12:31:39;;;;;;;;;;;;;;;30.42;36.21;100332.38;5055592;28;802;-31
2022/09/01 12:34:04;;;;;;;;;;;;;;;30.42;36.11;100340.50;5037971;28;841;-30
2022/09/01 12:36:35;;;;;;;;;;;;;;;30.42;36.00;100349.50;5056524;28;814;-33
2022/09/01 12:39:16;;;;;;;;;;;;;;;30.41;36.46;100353.25;5054797;28;1926;-32
2022/09/01 12:41:41;;;;;;;;;;;;;;;30.42;36.31;100349.50;5055452;28;774;-31
2022/09/01 12:44:28;;;;;;;;;;;;;;;30.46;36.54;100354.50;5056287;28;1025;-30
2022/09/01 12:46:54;;;;;;;;;;;;;;;30.44;36.20;100354.72;5055931;28;858;-31
2022/09/01 12:49:27;;;;;;;;;;;;;;;30.37;36.39;100364.75;5055536;28;931;-33
2022/09/01 12:52:25;;;;;;;;;;;;;;;30.30;36.47;100373.75;5055854;28;914;-30
2022/09/01 12:54:52;;;;;;;;;;;;;;;30.26;36.55;100371.69;5001318;28;1465;-32
2022/09/01 12:57:26;;;;;;;;;;;;;;;30.23;36.35;100372.13;5055537;28;750;-31
2022/09/01 13:00:04;;;;;;;;;;;;;;;30.18;36.34;100376.25;5055684;28;1957;-30
2022/09/01 13:02:33;;;;;;;;;;;;;;;30.10;36.78;100392.75;5055806;28;814;-32
2022/09/01 13:05:16;;;;;;;;;;;;;;;29.67;35.44;100392.22;5055779;28;807;-31
2022/09/01 13:07:42;;;;;;;;;;;;;;;29.41;35.40;100406.56;5056183;28;779;-34
2022/09/01 13:10:07;;;;;;;;;;;;;;;29.08;36.30;100406.28;5055309;28;832;-32
2022/09/01 13:12:32;;;;;;;;;;;;;;;29.14;36.99;100417.34;5055190;28;1240;-34
2022/09/01 13:14:57;;;;;;;;;;;;;;;29.36;35.94;100415.31;5055733;28;892;-31
2022/09/01 13:17:23;;;;;;;;;;;;;;;28.96;36.55;100419.56;5055010;28;1141;-30
2022/09/01 13:19:48;;;;;;;;;;;;;;;28.79;36.71;100404.72;5047334;28;1972;-29
2022/09/01 13:22:13;;;;;;;;;;;;;;;28.64;36.91;100410.28;5048998;28;1235;-28
2022/09/01 13:24:39;;;;;;;;;;;;;;;28.71;37.47;100403.84;5049066;28;1342;-28
2022/09/01 13:27:04;;;;;;;;;;;;;;;29.02;37.09;100403.56;5049975;28;1221;-30
2022/09/01 13:29:29;;;;;;;;;;;;;;;29.17;37.00;100406.09;5046333;28;1435;-29
2022/09/01 13:31:56;;;;;;;;;;;;;;;29.20;36.51;100409.22;5050713;28;1161;-33
2022/09/01 13:34:21;;;;;;;;;;;;;;;29.42;37.30;100405.50;5047936;28;1287;-31
2022/09/01 13:36:46;;;;;;;;;;;;;;;29.35;37.53;100400.06;5047649;28;1247;-28
2022/09/01 13:39:12;;;;;;;;;;;;;;;29.42;37.92;100402.78;5046748;28;1898;-30
2022/09/01 13:41:38;;;;;;;;;;;;;;;29.42;37.82;100405.50;5046917;28;1216;-31
2022/09/01 13:44:03;;;;;;;;;;;;;;;29.34;36.46;100414.69;5047978;28;1262;-30
2022/09/01 13:46:28;;;;;;;;;;;;;;;29.26;37.03;100420.28;5058775;28;844;-30
2022/09/01 13:48:53;;;;;;;;;;;;;;;29.29;37.36;100425.28;5058771;28;1012;-28
2022/09/01 13:51:25;;;;;;;;;;;;;;;29.27;37.53;100421.94;5059024;28;853;-32
2022/09/01 13:53:51;;;;;;;;;;;;;;;29.38;38.34;100413.19;5052226;28;857;-28
2022/09/01 13:56:16;;;;;;;;;;;;;;;29.51;37.95;100414.28;5058716;28;1402;-29
2022/09/01 13:58:41;;;;;;;;;;;;;;;29.55;37.93;100407.38;5058516;28;1254;-29
2022/09/01 14:01:06;;;;;;;;;;;;;;;29.54;37.26;100406.56;5059038;28;1906;-32
2022/09/01 14:03:32;;;;;;;;;;;;;;;29.56;37.45;100388.19;5058031;28;858;-31
2022/09/01 14:05:57;;;;;;;;;;;;;;;29.55;37.35;100383.84;5058388;28;926;-30
2022/09/01 14:08:23;;;;;;;;;;;;;;;29.58;36.99;100378.00;5058351;28;1169;-30
2022/09/01 14:10:49;;;;;;;;;;;;;;;29.64;36.97;100380.94;5049979;28;1255;-31
2022/09/01 14:13:14;;;;;;;;;;;;;;;29.67;37.06;100378.66;5049925;28;1266;-32
2022/09/01 14:15:40;;;;;;;;;;;;;;;29.57;37.95;100372.78;5057935;28;1305;-30
2022/09/01 14:18:05;;;;;;;;;;;;;;;29.53;37.44;100358.00;5058262;28;953;-29
2022/09/01 14:20:34;;;;;;;;;;;;;;;29.59;38.22;100368.03;5058250;28;1890;-33
2022/09/01 14:22:59;;;;;;;;;;;;;;;29.60;38.39;100369.69;5058150;28;849;-31
2022/09/01 14:25:25;;;;;;;;;;;;;;;29.69;38.34;100354.03;5056825;28;782;-29
2022/09/01 14:27:52;;;;;;;;;;;;;;;29.64;38.12;100361.97;5057002;28;1450;-30
2022/09/01 14:30:24;;;;;;;;;;;;;;;29.58;38.32;100353.59;5058249;28;806;-30
2022/09/01 14:32:49;;;;;;;;;;;;;;;29.48;38.43;100352.38;5058045;28;762;-30
2022/09/01 14:35:15;;;;;;;;;;;;;;;29.52;37.84;100350.91;5056387;28;1410;-28
2022/09/01 14:37:40;;;;;;;;;;;;;;;29.53;37.39;100349.88;5058212;28;801;-30
2022/09/01 14:40:07;;;;;;;;;;;;;;;29.45;37.65;100359.88;5057453;28;1905;-31
2022/09/01 14:42:32;;;;;;;;;;;;;;;29.51;37.98;100351.94;5057727;28;897;-34
2022/09/01 14:44:57;;;;;;;;;;;;;;;29.55;38.07;100353.19;5057511;28;824;-29
2022/09/01 14:47:24;;;;;;;;;;;;;;;29.54;37.32;100351.53;5057691;28;802;-30
2022/09/01 14:49:52;;;;;;;;;;;;;;;29.58;37.43;100363.59;5057513;28;1428;-29
2022/09/01 14:52:18;;;;;;;;;;;;;;;29.53;36.95;100366.13;5057745;28;802;-30
2022/09/01 14:54:43;;;;;;;;;;;;;;;29.60;37.22;100374.25;5057019;28;1402;-30
2022/09/01 14:57:08;;;;;;;;;;;;;;;29.54;37.21;100365.06;5057027;28;877;-32
2022/09/01 14:59:33;;;;;;;;;;;;;;;29.55;37.19;100367.56;5057893;28;1906;-30
2022/09/01 15:01:59;;;;;;;;;;;;;;;29.55;37.93;100367.56;5057792;28;833;-29
2022/09/01 15:04:25;;;;;;;;;;;;;;;29.41;36.70;100361.31;5057616;28;930;-28
2022/09/01 15:06:50;;;;;;;;;;;;;;;29.55;37.88;100364.88;5056963;28;749;-30
2022/09/01 15:09:15;;;;;;;;;;;;;;;29.60;38.17;100360.72;5056567;28;1359;-33
2022/09/01 15:11:41;;;;;;;;;;;;;;;29.53;37.02;100363.41;5056893;28;785;-32
2022/09/01 15:14:08;;;;;;;;;;;;;;;29.55;37.38;100361.31;5057258;28;1077;-32
2022/09/01 15:16:38;;;;;;;;;;;;;;;29.62;37.41;100361.34;5057171;28;918;-32
2022/09/01 15:19:03;;;;;;;;;;;;;;;29.61;37.36;100365.09;5057153;28;1918;-30
2022/09/01 15:21:30;;;;;;;;;;;;;;;29.62;37.43;100358.63;5054048;28;1192;-29
2022/09/01 15:23:56;;;;;;;;;;;;;;;29.63;38.78;100363.84;5057134;28;1423;-30
2022/09/01 15:26:21;;;;;;;;;;;;;;;29.71;38.71;100365.53;5056658;28;1432;-31
2022/09/01 15:28:47;;;;;;;;;;;;;;;29.70;39.18;100361.13;5057231;28;1068;-28
2022/09/01 15:31:13;;;;;;;;;;;;;;;29.63;38.63;100358.41;5057325;28;840;-29
2022/09/01 15:33:38;;;;;;;;;;;;;;;29.76;38.52;100360.28;5056696;28;956;-32
2022/09/01 15:36:04;;;;;;;;;;;;;;;29.69;38.02;100364.88;5054014;28;1137;-29
2022/09/01 15:38:29;;;;;;;;;;;;;;;29.72;39.03;100367.19;5056815;28;862;-32
2022/09/01 15:40:55;;;;;;;;;;;;;;;29.67;39.27;100372.38;5055761;28;1951;-30
2022/09/01 15:43:20;;;;;;;;;;;;;;;29.72;38.76;100379.88;5056964;28;1097;-30
2022/09/01 15:45:46;;;;;;;;;;;;;;;29.69;38.68;100373.88;5056576;28;893;-30
2022/09/01 15:48:11;;;;;;;;;;;;;;;29.74;39.39;100373.22;5056014;28;952;-32
2022/09/01 15:50:36;;;;;;;;;;;;;;;29.70;39.30;100374.69;5056082;28;822;-30
2022/09/01 15:53:04;;;;;;;;;;;;;;;29.68;38.26;100376.75;5054025;28;1363;-30
2022/09/01 15:55:30;;;;;;;;;;;;;;;29.67;38.26;100378.66;5056402;28;1235;-29
2022/09/01 15:57:56;;;;;;;;;;;;;;;29.48;36.45;100376.75;5053365;28;1336;-33
2022/09/01 16:00:22;;;;;;;;;;;;;;;28.88;33.79;100372.91;5056019;28;1961;-29
2022/09/01 16:02:47;;;;;;;;;;;;;;;27.97;40.48;100377.25;5055981;28;818;-31
2022/09/01 16:05:13;;;;;;;;;;;;;;;25.27;41.88;100375.56;5054546;28;2476;-31
2022/09/01 16:07:39;;;;;;;;;;;;;;;23.51;38.55;100379.78;5055142;28;2006;-32
2022/09/01 16:10:10;;;;;;;;;;;;;;;22.48;39.23;100374.47;5055377;28;2065;-31
2022/09/01 16:12:37;;;;;;;;;;;;;;;21.53;39.71;100382.22;5051434;28;2102;-31
2022/09/01 16:15:02;;;;;;;;;;;;;;;21.02;40.80;100378.22;5046924;28;1980;-28
2022/09/01 16:17:36;;;;;;;;;;;;;;;20.66;39.31;100387.00;5054084;28;1829;-29
2022/09/01 16:20:04;;;;;;;;;;;;;;;20.28;39.65;100380.81;5053592;28;2107;-28
2022/09/01 16:22:34;;;;;;;;;;;;;;;21.96;39.65;100386.91;5034706;28;1710;-26
2022/09/01 16:25:00;;;;;;;;;;;;;;;23.83;36.79;100393.38;5055770;28;794;-28
2022/09/01 16:27:37;;;;;;;;;;;;;;;24.46;33.66;100396.28;5052783;28;1238;-27
2022/09/01 16:30:09;;;;;;;;;;;;;;;23.38;38.50;100392.84;5053357;28;866;-26
2022/09/01 16:32:35;;;;;;;;;;;;;;;21.97;43.00;100396.66;5055819;28;766;-26
2022/09/01 16:35:02;;;;;;;;;;;;;;;21.50;42.56;100391.38;5055205;28;1123;-26
2022/09/01 16:37:31;;;;;;;;;;;;;;;21.20;43.59;100401.50;5053715;28;1187;-29
2022/09/01 16:39:59;;;;;;;;;;;;;;;21.08;45.14;100391.97;5055952;28;1961;-26
2022/09/01 16:42:27;;;;;;;;;;;;;;;21.06;46.02;100389.47;5055738;28;849;-29
2022/09/01 16:45:11;;;;;;;;;;;;;;;22.43;43.22;100401.75;5056090;28;762;-25
2022/09/01 16:47:39;;;;;;;;;;;;;;;24.34;39.01;100409.25;5055654;28;893;-26
2022/09/01 16:50:07;;;;;;;;;;;;;;;25.13;37.95;100408.59;5059380;28;2451;-25
2022/09/01 16:52:42;;;;;;;;;;;;;;;25.73;36.89;100408.88;5057530;28;843;-30
2022/09/01 16:55:22;;;;;;;;;;;;;;;26.02;35.86;100419.88;5055479;28;910;-27
2022/09/01 16:57:54;;;;;;;;;;;;;;;25.99;35.10;100425.66;5031980;28;1274;-28
2022/09/01 17:00:19;;;;;;;;;;;;;;;25.86;35.13;100420.91;5055267;28;1945;-29
2022/09/01 17:03:00;;;;;;;;;;;;;;;25.75;34.78;100423.00;5035703;28;809;-26
2022/09/01 17:05:44;;;;;;;;;;;;;;;25.68;34.66;100433.66;5055686;28;1222;-29
2022/09/01 17:08:21;;;;;;;;;;;;;;;25.61;34.72;100434.53;5038019;28;811;-27
2022/09/01 17:10:49;;;;;;;;;;;;;;;25.52;34.81;100447.22;5048871;28;809;-28
2022/09/01 17:13:15;;;;;;;;;;;;;;;25.61;34.44;100448.81;5055509;28;1583;-27
2022/09/01 17:15:42;;;;;;;;;;;;;;;25.82;33.64;100452.75;5055382;28;829;-27
2022/09/01 17:18:15;;;;;;;;;;;;;;;25.66;33.64;100461.78;5038524;28;809;-29
2022/09/01 17:20:41;;;;;;;;;;;;;;;25.59;33.86;100463.50;5060790;28;2495;-28
2022/09/01 17:23:09;;;;;;;;;;;;;;;25.64;33.58;100461.97;5052735;28;790;-27
2022/09/01 17:25:37;;;;;;;;;;;;;;;25.65;33.50;100458.28;5053193;28;813;-29
2022/09/01 17:28:06;;;;;;;;;;;;;;;25.71;33.09;100469.34;5035267;28;831;-28
2022/09/01 17:30:34;;;;;;;;;;;;;;;25.69;33.44;100474.91;5053017;28;797;-26
2022/09/01 17:33:07;;;;;;;;;;;;;;;25.67;33.27;100468.88;5042106;28;850;-29
2022/09/01 17:35:35;;;;;;;;;;;;;;;25.72;33.04;100471.00;5053587;28;854;-29
2022/09/01 17:38:03;;;;;;;;;;;;;;;25.73;33.10;100462.75;5058807;28;877;-28
2022/09/01 17:40:44;;;;;;;;;;;;;;;25.76;32.96;100477.69;5058520;28;1898;-27
2022/09/01 17:43:24;;;;;;;;;;;;;;;25.75;32.76;100479.56;5058984;28;836;-30
2022/09/01 17:45:56;;;;;;;;;;;;;;;25.84;32.60;100479.50;5041850;28;798;-28
2022/09/01 17:48:21;;;;;;;;;;;;;;;25.80;32.56;100476.34;5058656;28;970;-29
2022/09/01 17:50:49;;;;;;;;;;;;;;;25.72;32.70;100479.09;5063518;28;2534;-28
2022/09/01 17:53:33;;;;;;;;;;;;;;;25.75;32.76;100484.97;5059152;28;767;-27
2022/09/01 17:56:00;;;;;;;;;;;;;;;25.75;32.73;100481.41;5052921;28;762;-30
2022/09/01 17:58:38;;;;;;;;;;;;;;;25.75;32.67;100474.19;5040958;28;841;-29
2022/09/01 18:01:08;;;;;;;;;;;;;;;25.79;32.31;100477.38;5058083;28;1894;-30
2022/09/01 18:03:52;;;;;;;;;;;;;;;25.77;32.28;100482.94;5058777;28;774;-28
2022/09/01 18:06:26;;;;;;;;;;;;;;;25.72;32.33;100479.94;5058270;28;826;-28
2022/09/01 18:08:52;;;;;;;;;;;;;;;25.70;32.38;100486.50;5057093;28;1297;-27
2022/09/01 18:11:33;;;;;;;;;;;;;;;25.73;32.52;100478.91;5040058;28;802;-28
2022/09/01 18:14:01;;;;;;;;;;;;;;;25.71;32.47;100480.13;5050537;28;1300;-30
2022/09/01 18:16:28;;;;;;;;;;;;;;;25.69;32.14;100485.69;5052070;28;782;-29
2022/09/01 18:18:53;;;;;;;;;;;;;;;25.69;32.19;100491.06;5054044;28;1117;-29
2022/09/01 18:21:20;;;;;;;;;;;;;;;25.70;31.76;100494.59;5040282;28;2664;-27
2022/09/01 18:23:46;;;;;;;;;;;;;;;25.53;31.84;100503.59;5057658;28;822;-29
2022/09/01 18:26:11;;;;;;;;;;;;;;;25.52;31.83;100501.94;5058121;28;822;-28
2022/09/01 18:28:36;;;;;;;;;;;;;;;25.58;31.58;100504.91;5057935;28;811;-26
2022/09/01 18:31:20;;;;;;;;;;;;;;;25.49;31.42;100504.97;5057703;28;841;-27
2022/09/01 18:33:59;;;;;;;;;;;;;;;25.65;31.41;100512.16;5051684;28;1361;-27
2022/09/01 18:36:43;;;;;;;;;;;;;;;25.58;36.96;100504.91;5039964;28;775;-27
2022/09/01 18:39:19;;;;;;;;;;;;;;;25.84;33.81;100506.44;5057916;28;1906;-28
2022/09/01 18:41:51;;;;;;;;;;;;;;;25.68;33.88;100503.69;5039777;28;802;-28
2022/09/01 18:44:19;;;;;;;;;;;;;;;25.63;34.68;100506.09;5057577;28;808;-28
2022/09/01 18:47:11;;;;;;;;;;;;;;;25.86;34.79;100507.13;5039392;28;1206;-28
2022/09/01 18:49:56;;;;;;;;;;;;;;;25.87;37.68;100509.63;5053510;28;1338;-27
2022/09/01 18:52:24;;;;;;;;;;;;;;;25.85;34.71;100505.44;5056573;28;1187;-26
2022/09/01 18:55:25;;;;;;;;;;;;;;;25.82;36.21;100508.47;5039576;28;846;-28
2022/09/01 18:57:51;;;;;;;;;;;;;;;25.81;39.05;100518.41;4954114;29;1238;-26
2022/09/01 19:00:20;;;;;;;;;;;;;;;25.96;41.57;100517.66;5036828;28;1905;-27
2022/09/01 19:03:04;;;;;;;;;;;;;;;26.05;42.69;100505.78;5039850;28;759;-28
2022/09/01 19:05:48;;;;;;;;;;;;;;;26.15;42.24;100510.91;5057214;28;802;-26
2022/09/01 19:08:16;;;;;;;;;;;;;;;26.13;36.98;100508.41;5051721;28;803;-28
2022/09/01 19:10:43;;;;;;;;;;;;;;;26.19;35.81;100506.00;5057328;28;773;-27
2022/09/01 19:18:50;;;;;;;;;;;;;;;26.32;39.41;100516.16;5673728;23;7169;-42
2022/09/01 19:21:22;;;;;;;;;;;;;;;26.28;39.59;100526.44;5043003;28;1973;-40
2022/09/01 19:24:00;;;;;;;;;;;;;;;26.20;36.23;100515.75;5049930;28;1926;-42
2022/09/01 19:26:26;;;;;;;;;;;;;;;26.16;35.74;100513.41;5047857;28;1744;-40
2022/09/01 19:29:01;;;;;;;;;;;;;;;26.13;34.67;100515.63;5046092;28;1890;-39
2022/09/01 19:31:28;;;;;;;;;;;;;;;26.15;34.37;100509.06;5041477;28;1889;-39
2022/09/01 19:33:54;;;;;;;;;;;;;;;26.10;34.04;100513.31;5045943;28;1960;-39
2022/09/01 19:36:39;;;;;;;;;;;;;;;26.07;34.05;100510.97;5044663;28;1789;-38
2022/09/01 19:39:05;;;;;;;;;;;;;;;26.00;33.78;100513.56;5044159;28;1052;-37
2022/09/01 19:41:34;;;;;;;;;;;;;;;26.08;33.60;100518.03;5054498;28;1898;-38
2022/09/01 19:44:09;;;;;;;;;;;;;;;26.14;33.25;100522.72;5043452;28;997;-38
2022/09/01 19:46:45;;;;;;;;;;;;;;;26.16;33.89;100534.13;5040760;28;890;-38
2022/09/01 19:49:15;;;;;;;;;;;;;;;26.04;34.35;100525.66;5041573;28;1363;-37
2022/09/01 19:51:52;;;;;;;;;;;;;;;25.90;33.98;100527.28;5050076;28;996;-38
2022/09/01 19:54:28;;;;;;;;;;;;;;;25.92;34.04;100528.75;5043072;28;1042;-38
2022/09/01 19:56:54;;;;;;;;;;;;;;;25.95;33.55;100519.50;5050753;28;1095;-36
2022/09/01 19:59:43;;;;;;;;;;;;;;;25.79;33.77;100517.78;5054129;28;1898;-36
2022/09/01 20:02:08;;;;;;;;;;;;;;;25.94;33.92;100525.06;5009650;28;1154;-36
2022/09/01 20:04:41;;;;;;;;;;;;;;;26.12;32.64;100530.16;5052994;28;986;-35
2022/09/01 20:07:27;;;;;;;;;;;;;;;26.21;31.42;100528.22;5043501;28;2130;-35
2022/09/01 20:09:53;;;;;;;;;;;;;;;26.20;31.50;100531.91;5046030;28;875;-36
2022/09/01 20:12:32;;;;;;;;;;;;;;;26.24;30.84;100528.66;5039766;28;1029;-35
2022/09/01 20:14:58;;;;;;;;;;;;;;;26.25;30.42;100524.13;5047535;28;1060;-36
2022/09/01 20:17:42;;;;;;;;;;;;;;;26.27;30.35;100525.63;5051235;28;977;-36
2022/09/01 20:20:09;;;;;;;;;;;;;;;26.27;30.36;100532.88;5047449;28;2024;-36
2022/09/01 20:22:34;;;;;;;;;;;;;;;26.25;30.17;100530.38;5051300;28;922;-36
2022/09/01 20:25:07;;;;;;;;;;;;;;;26.23;30.58;100548.56;5054759;28;1048;-36
2022/09/01 20:27:54;;;;;;;;;;;;;;;26.18;30.02;100532.09;5055748;28;1124;-36
2022/09/01 20:30:20;;;;;;;;;;;;;;;26.19;30.02;100532.94;5042180;28;1342;-36
2022/09/01 20:32:55;;;;;;;;;;;;;;;26.21;29.88;100523.66;5049270;28;1091;-36
2022/09/01 20:35:36;;;;;;;;;;;;;;;26.21;29.73;100539.81;5050349;28;1115;-36
2022/09/01 20:41:25;;;;;;;;;;;;;;;26.19;29.50;100549.13;5046940;28;1894;-36
2022/09/01 20:43:51;;;;;;;;;;;;;;;26.23;29.10;100545.88;5045272;28;1384;-36
2022/09/01 20:46:20;;;;;;;;;;;;;;;26.22;29.25;100548.75;5043916;28;1045;-37
2022/09/01 20:48:45;;;;;;;;;;;;;;;26.20;29.07;100546.25;5044998;28;1056;-37
2022/09/01 20:51:17;;;;;;;;;;;;;;;26.17;29.01;100546.63;5055346;28;1085;-36
2022/09/01 20:53:59;;;;;;;;;;;;;;;26.17;29.10;100544.75;5045287;28;926;-36
2022/09/01 20:56:28;;;;;;;;;;;;;;;26.12;29.11;100539.09;5048239;28;1016;-36
2022/09/01 20:59:01;;;;;;;;;;;;;;;26.19;28.37;100549.97;5046032;28;938;-35
2022/09/01 21:01:30;;;;;;;;;;;;;;;26.16;28.95;100545.78;5047388;28;1964;-36
2022/09/01 21:04:07;;;;;;;;;;;;;;;26.09;29.12;100547.50;5051038;28;1100;-36
2022/09/01 21:06:41;;;;;;;;;;;;;;;26.13;28.69;100546.13;5055261;28;1087;-35
2022/09/01 21:09:19;;;;;;;;;;;;;;;26.07;28.91;100544.16;5055658;28;1056;-34
2022/09/01 21:11:50;;;;;;;;;;;;;;;26.09;29.11;100539.41;5038427;28;1207;-36
2022/09/01 21:14:37;;;;;;;;;;;;;;;26.10;28.68;100542.97;5057745;28;917;-36
2022/09/01 21:17:18;;;;;;;;;;;;;;;26.07;28.98;100538.78;5042413;28;1179;-36
2022/09/01 21:19:47;;;;;;;;;;;;;;;26.08;28.65;100542.28;5051459;28;1918;-35
2022/09/01 21:22:13;;;;;;;;;;;;;;;26.06;28.70;100539.78;5047532;28;1021;-36
2022/09/01 21:24:40;;;;;;;;;;;;;;;26.05;28.66;100530.03;5052722;28;1024;-36
2022/09/01 21:27:07;;;;;;;;;;;;;;;26.09;28.93;100536.72;5054802;28;1118;-36
2022/09/01 21:29:51;;;;;;;;;;;;;;;26.05;28.63;100535.41;5050612;28;981;-35